Aiguafreda





Hora UTC 08:05
Temperatura 11.5 ºC
Sòl 15 cm 13.8 ºC
Humitat 55.2 %
Pressió 1016.5 hPa
Pluja 0.0 mm
Velocitat vent 4.6 km/h
Direcció vent ENE
Radiació solar 489.2 W/m²

Dades diàries 2021-04-19



Hora UTC (hivern +1h; estiu +2h)
Temperatura (ºC) Humitat (%) Pressió (hPa) Velocitat vent (km/h) Precipitació (mm) Radiació solar (W/m²)
Hora UTC Aire Sòl 15 cm Humitat Pressió Vel. Dir. Vel. Max Dir. Intent. màx 5 min. Rad. Sol.
00:05 4.0 2.9 88.8 1018.2 0.1 NE 0.1 NE 0.0 0.1
00:10 4.0 3.0 88.7 1018.1 0.3 ESE 3.4 NE 0.0 0.4
00:15 4.0 3.0 88.6 1018.2 0.6 SSE 3.4 SSE 0.0 0.3
00:20 4.0 2.9 88.3 1018.0 0.0 NNE 0.0 SE 0.0 0.5
00:25 3.9 2.8 88.4 1018.0 0.0 NNE 0.0 ESE 0.0 0.5
00:30 3.9 2.8 88.7 1018.0 0.0 SSW 3.4 SSW 0.0 1.7
00:35 3.8 2.7 88.9 1017.9 0.0 NNE 0.0 NNE 0.0 2.1
00:40 3.7 2.7 89.2 1018.0 0.0 NNE 0.0 NNE 0.0 1.9
00:45 3.7 2.6 89.5 1017.8 0.0 NNE 0.0 NNW 0.0 1.7
00:50 3.7 2.6 89.7 1017.8 0.0 NNE 0.0 NNW 0.0 1.6
00:55 3.7 2.7 89.5 1017.8 0.0 NNE 0.0 N 0.0 1.8
01:00 3.7 2.7 89.6 1017.7 0.0 NNE 0.0 E 0.0 1.9
01:05 3.7 2.7 89.7 1017.7 0.0 NNE 0.0 E 0.0 1.7
01:10 3.7 2.7 89.7 1017.6 0.0 NNE 0.0 E 0.0 1.9
01:15 3.7 2.7 89.8 1017.6 0.0 NNE 0.0 NW 0.0 1.8
01:20 3.7 2.7 89.8 1017.6 0.0 NNE 0.0 ESE 0.0 1.8
01:25 3.7 2.7 89.7 1017.6 0.0 NNE 0.0 ESE 0.0 1.9
01:30 3.7 2.7 89.8 1017.5 0.0 N 3.4 N 0.0 1.9
01:35 3.7 2.8 89.8 1017.5 0.1 SE 3.4 ESE 0.0 2.1
01:40 3.7 2.8 89.6 1017.5 1.2 SE 6.1 SSE 0.0 1.9
01:45 3.6 2.7 89.5 1017.5 0.0 NNE 0.0 ESE 0.0 2.0
01:50 3.6 2.7 89.6 1017.4 0.0 NNE 0.0 NE 0.0 2.0
01:55 3.6 2.6 89.8 1017.4 0.0 NNE 0.0 NE 0.0 1.9
02:00 3.5 2.6 89.9 1017.4 0.0 NNE 0.0 NE 0.0 1.8
02:05 3.5 2.6 90.1 1017.4 0.2 SSE 3.4 SE 0.0 1.7
02:10 3.5 2.6 89.9 1017.4 0.3 SSE 3.4 SSE 0.0 0.7
02:15 3.5 2.5 89.9 1017.4 0.0 NNE 0.0 SSE 0.0 0.3
02:20 3.5 2.5 89.9 1017.4 0.0 NNE 0.0 SSE 0.0 0.2
02:25 3.4 2.4 90.1 1017.3 0.0 NNE 0.0 SSE 0.0 0.3
02:30 3.3 2.3 90.2 1017.3 0.0 NNE 0.0 NE 0.0 0.3
02:35 3.3 2.3 90.3 1017.3 0.0 NNE 0.0 NE 0.0 0.3
02:40 3.2 2.2 90.6 1017.2 0.0 NNE 0.0 NE 0.0 0.3
02:45 3.2 2.2 90.9 1017.2 0.0 NW 3.4 NW 0.0 0.3
02:50 3.2 2.2 90.9 1017.2 0.0 NNE 0.0 NW 0.0 0.3
02:55 3.1 2.1 91.0 1017.3 0.0 NNE 0.0 NW 0.0 0.2
03:00 3.1 2.1 91.2 1017.2 0.3 SW 3.4 W 0.0 0.3
03:05 3.2 2.2 91.3 1017.2 0.0 SW 3.4 SW 0.0 0.3
03:10 3.2 2.3 91.1 1017.3 0.1 SW 3.4 SW 0.0 0.3
03:15 3.2 2.2 90.7 1017.2 1.6 SSE 6.1 SSE 0.0 0.3
03:20 3.2 2.2 90.4 1017.1 0.0 NNE 0.0 SSW 0.0 0.3
03:25 3.2 2.2 90.3 1017.1 1.0 S 3.4 S 0.0 0.3
03:30 3.2 2.2 90.3 1017.1 0.0 NNE 0.0 SSE 0.0 0.3
03:35 3.1 2.1 90.3 1017.1 0.0 NNE 0.0 N 0.0 0.3
03:40 3.1 2.1 90.6 1017.1 0.3 SW 3.4 SW 0.0 0.3
03:45 3.1 2.1 90.8 1017.1 0.0 NNE 0.0 WSW 0.0 0.2
03:50 3.1 2.1 90.7 1017.1 0.0 SW 3.4 SW 0.0 0.3
03:55 3.1 2.1 90.8 1017.0 0.0 NNE 0.0 SW 0.0 0.3
04:00 3.0 2.1 90.9 1017.0 0.0 NNE 0.0 SW 0.0 0.3
04:05 3.0 2.1 91.1 1016.9 0.0 NNE 0.0 WNW 0.0 0.3
04:10 3.0 2.0 91.0 1017.0 0.0 NNE 0.0 NNW 0.0 0.3
04:15 3.0 2.0 91.2 1016.9 0.1 NW 3.4 NNW 0.0 0.2
04:20 3.0 2.0 91.2 1016.9 0.1 WNW 3.4 WNW 0.0 0.3
04:25 2.9 1.9 91.2 1016.8 0.2 NW 3.4 WNW 0.0 0.3
04:30 2.9 1.9 91.2 1016.8 0.0 NNE 0.0 WNW 0.0 0.3
04:35 2.9 1.8 91.2 1016.8 0.0 NNE 0.0 WNW 0.0 0.3
04:40 2.8 1.7 91.3 1016.8 0.0 NNE 0.0 WNW 0.0 0.3
04:45 2.8 1.7 91.3 1016.8 0.0 NNE 0.0 SSW 0.0 0.4
04:50 2.7 1.6 91.4 1016.7 0.0 NNE 0.0 S 0.0 0.7
04:55 2.7 1.5 91.7 1016.7 0.0 NNE 0.0 S 0.0 1.4
05:00 2.7 1.6 91.9 1016.7 0.0 W 3.4 W 0.0 2.1
05:05 2.7 1.6 91.7 1016.8 0.0 SSE 3.4 SSE 0.0 4.2
05:10 2.6 1.5 91.6 1016.8 0.0 NNE 0.0 SE 0.0 6.4
05:15 2.6 1.4 91.8 1016.8 0.0 NNE 0.0 NE 0.0 9.9
05:20 2.6 1.4 91.8 1016.8 0.0 SSE 3.4 SSE 0.0 13.8
05:25 2.6 1.5 91.9 1016.8 0.3 S 3.4 S 0.0 18.0
05:30 2.6 1.6 91.9 1016.8 0.1 S 3.4 S 0.0 20.1
05:35 2.7 1.6 91.9 1016.9 0.0 NNE 0.0 SSW 0.0 22.0
05:40 2.7 1.7 91.9 1016.9 0.0 NNE 0.0 S 0.0 25.3
05:45 2.8 1.8 91.9 1016.9 0.0 NNE 0.0 S 0.0 28.8
05:50 2.8 1.9 91.9 1017.0 0.0 S 3.4 S 0.0 29.5
05:55 2.9 2.0 91.8 1017.1 0.0 NNE 0.0 S 0.0 31.1
06:00 3.0 2.1 91.7 1017.1 0.8 SSE 3.4 SSE 0.0 33.1
06:05 3.0 2.1 91.3 1017.1 1.0 S 6.1 S 0.0 36.2
06:10 3.0 2.2 90.8 1017.1 3.0 SE 6.1 SSE 0.0 38.6
06:15 3.0 2.2 90.7 1017.2 0.5 SE 3.4 E 0.0 40.9
06:20 3.1 2.3 90.7 1017.2 0.0 NNE 0.0 SE 0.0 43.4
06:25 3.3 2.5 90.7 1017.2 0.3 SE 3.4 SE 0.0 45.7
06:30 3.5 2.7 90.5 1017.2 0.0 NNE 0.0 SE 0.0 50.0
06:35 3.7 2.9 90.2 1017.2 0.7 SSW 6.1 NNW 0.0 160.3
06:40 4.0 3.3 89.5 1017.2 0.0 NNE 0.0 NW 0.0 173.9
06:45 4.6 3.7 87.6 1017.1 1.6 SSE 3.4 SE 0.0 126.9
06:50 5.4 4.2 84.2 1017.1 0.4 S 3.4 SSE 0.0 201.2
06:55 6.3 4.8 79.4 1017.1 2.0 ESE 8.8 E 0.0 231.5
07:00 6.9 5.6 77.1 1017.1 1.7 NNE 6.1 NE 0.0 269.4
07:05 7.3 6.2 74.8 1017.0 2.4 ENE 8.8 NNE 0.0 287.3
07:10 7.5 6.9 73.8 1017.0 3.5 ENE 8.8 NE 0.0 305.0
07:15 8.1 7.4 72.1 1016.9 3.0 NE 8.8 NNE 0.0 321.7
07:20 8.8 7.8 69.1 1016.8 3.8 NE 11.5 NE 0.0 339.1
07:25 9.5 8.3 66.3 1016.7 3.3 ENE 8.8 NE 0.0 355.5
07:30 9.7 8.7 62.9 1016.7 2.9 SE 8.8 SSW 0.0 371.7
07:35 9.5 8.8 62.8 1016.8 4.3 ESE 8.8 E 0.0 388.3
07:40 9.8 9.5 62.7 1016.7 3.2 ENE 8.8 E 0.0 404.9
07:45 10.0 10.4 60.9 1016.7 6.2 ENE 11.5 ENE 0.0 422.2
07:50 10.2 11.1 59.9 1016.6 7.1 NE 14.2 N 0.0 439.9
07:55 10.5 12.2 59.1 1016.6 5.5 NNE 11.5 NE 0.0 455.9
08:00 11.0 12.9 57.0 1016.6 4.8 NE 8.8 ENE 0.0 472.7
08:05 11.5 13.8 55.2 1016.5 4.6 ENE 11.5 NE 0.0 489.2
Màxima 11.7 13.8 91.9 1018.2 7.1 NE 14.2 N 0.0 489.2
Mínima 2.6 1.4 55.2 1016.5
Total 0.0